createdAt,value
2022-10-14T00:00:00.799Z,10.10
2022-10-14T00:01:10.373Z,11.20
2022-10-14T00:02:12.508Z,10.93
2022-10-14T00:03:14.486Z,10.13
2022-10-14T00:04:16.673Z,10.65
2022-10-14T00:05:21.412Z,11.00
2022-10-14T00:06:29.691Z,11.10
2022-10-14T00:07:31.708Z,11.13
2022-10-14T00:08:34.083Z,11.65
2022-10-14T00:09:36.688Z,11.77
2022-10-14T00:10:40.392Z,12.02
2022-10-14T00:11:45.772Z,11.55
2022-10-14T00:12:47.869Z,11.35
2022-10-14T00:13:51.179Z,12.00
2022-10-14T00:14:53.325Z,12.15
2022-10-14T00:15:58.076Z,11.85
2022-10-14T00:17:01.283Z,11.90
2022-10-14T00:18:03.516Z,11.45
2022-10-14T00:19:06.574Z,11.68
2022-10-14T00:20:09.102Z,12.25
2022-10-14T00:21:11.353Z,12.35
2022-10-14T00:22:17.922Z,12.25
2022-10-14T00:23:20.467Z,11.07
2022-10-14T00:24:24.020Z,11.73
2022-10-14T00:25:29.142Z,11.60
2022-10-14T00:26:34.915Z,12.70
2022-10-14T00:27:36.930Z,12.13
2022-10-14T00:28:40.124Z,12.70
2022-10-14T00:29:42.404Z,12.70
2022-10-14T00:30:54.674Z,13.05
2022-10-14T00:31:56.892Z,12.63
2022-10-14T00:32:59.945Z,13.45
2022-10-14T00:34:02.173Z,12.07
2022-10-14T00:35:04.776Z,12.40
2022-10-14T00:36:07.881Z,12.88
2022-10-14T00:37:11.568Z,13.13
2022-10-14T00:38:15.189Z,13.55
2022-10-14T00:39:17.663Z,12.70
2022-10-14T00:40:21.799Z,12.85
2022-10-14T00:41:27.783Z,13.65
2022-10-14T00:42:34.709Z,12.93
2022-10-14T00:44:02.877Z,12.63
2022-10-14T00:45:15.748Z,12.88
2022-10-14T00:46:19.547Z,13.10
2022-10-14T00:47:22.940Z,13.43
2022-10-14T00:48:26.840Z,13.45
2022-10-14T00:49:41.087Z,14.35
2022-10-14T00:50:45.864Z,13.70
2022-10-14T00:52:17.507Z,13.55
2022-10-14T00:53:21.582Z,14.43
2022-10-14T00:54:34.397Z,13.80
2022-10-14T00:55:40.541Z,13.68
2022-10-14T00:56:46.050Z,13.38
2022-10-14T00:57:48.532Z,14.13
2022-10-14T00:58:51.758Z,13.98
2022-10-14T01:00:00.153Z,15.25
2022-10-14T01:01:08.114Z,14.23
2022-10-14T01:02:13.762Z,13.48
2022-10-14T01:03:28.276Z,14.52
2022-10-14T01:04:31.233Z,14.15
2022-10-14T01:05:41.606Z,13.75
2022-10-14T01:07:00.411Z,14.75
2022-10-14T01:08:21.206Z,13.70
2022-10-14T01:09:28.348Z,13.88
2022-10-14T01:10:39.161Z,14.68
2022-10-14T01:12:26.852Z,14.18
2022-10-14T01:13:35.136Z,13.90
2022-10-14T01:15:00.626Z,15.15
2022-10-14T01:16:17.843Z,14.35
2022-10-14T01:17:32.502Z,15.00
2022-10-14T01:18:56.396Z,15.23
2022-10-14T01:20:35.534Z,15.02
2022-10-14T01:21:45.743Z,15.25
2022-10-14T01:23:10.413Z,15.50
2022-10-14T01:24:37.423Z,14.88
2022-10-14T01:26:08.301Z,15.38
2022-10-14T01:27:28.876Z,14.73
2022-10-14T01:29:12.949Z,14.73
2022-10-14T01:30:19.834Z,15.68
2022-10-14T01:31:31.063Z,15.88
2022-10-14T01:32:39.366Z,14.85
2022-10-14T01:33:46.681Z,15.23
2022-10-14T01:35:15.073Z,14.63
2022-10-14T01:36:35.289Z,14.90
2022-10-14T01:37:43.562Z,15.85
2022-10-14T01:39:06.764Z,14.60
2022-10-14T01:40:17.744Z,14.93
2022-10-14T01:42:01.152Z,14.15
2022-10-14T01:43:06.082Z,14.95
2022-10-14T01:44:12.275Z,14.82
2022-10-14T01:45:20.741Z,14.95
2022-10-14T01:46:25.798Z,15.05
2022-10-14T01:47:31.384Z,14.45
2022-10-14T01:48:37.218Z,15.27
2022-10-14T01:49:47.684Z,14.63
2022-10-14T01:50:53.117Z,14.93
2022-10-14T01:52:05.957Z,14.98
2022-10-14T01:53:14.602Z,14.63
2022-10-14T01:54:22.998Z,14.40
2022-10-14T01:55:29.936Z,14.43
2022-10-14T01:56:37.048Z,15.05
2022-10-14T01:57:47.357Z,15.25
2022-10-14T01:58:52.211Z,15.23
2022-10-14T01:59:57.068Z,15.05
2022-10-14T02:01:03.833Z,14.55
2022-10-14T02:02:07.134Z,14.40
2022-10-14T02:03:13.332Z,14.45
2022-10-14T02:04:18.225Z,15.30
2022-10-14T02:05:36.699Z,14.70
2022-10-14T02:06:44.528Z,14.30
2022-10-14T02:07:52.352Z,14.23
2022-10-14T02:09:25.318Z,14.63
2022-10-14T02:10:41.987Z,13.43
2022-10-14T02:11:49.812Z,13.50
2022-10-14T02:13:20.661Z,14.60
2022-10-14T02:14:51.808Z,14.48
2022-10-14T02:15:56.390Z,14.75
2022-10-14T02:17:17.691Z,14.38
2022-10-14T02:18:40.630Z,12.80
2022-10-14T02:19:55.175Z,13.02
2022-10-14T02:21:07.262Z,13.80
2022-10-14T02:22:43.598Z,12.75
2022-10-14T02:24:35.244Z,13.40
2022-10-14T02:25:42.128Z,12.65
2022-10-14T02:26:46.664Z,12.73
2022-10-14T02:27:52.389Z,12.98
2022-10-14T02:28:58.329Z,13.98
2022-10-14T02:30:01.840Z,14.23
2022-10-14T02:31:09.223Z,13.75
2022-10-14T02:32:15.760Z,13.55
2022-10-14T02:33:22.734Z,12.82
2022-10-14T02:34:26.257Z,12.80
2022-10-14T02:35:32.908Z,13.60
2022-10-14T02:36:42.921Z,13.68
2022-10-14T02:37:47.980Z,12.77
2022-10-14T02:38:55.462Z,13.63
2022-10-14T02:40:12.317Z,13.35
2022-10-14T02:41:18.524Z,13.45
2022-10-14T02:42:20.849Z,14.52
2022-10-14T02:43:23.801Z,13.93
2022-10-14T02:44:25.849Z,15.18
2022-10-14T02:45:28.130Z,15.30
2022-10-14T02:46:30.455Z,15.25
2022-10-14T02:47:34.033Z,15.82
2022-10-14T02:48:36.535Z,15.10
2022-10-14T02:49:38.585Z,15.93
2022-10-14T02:50:43.460Z,15.38
2022-10-14T02:51:46.500Z,15.27
2022-10-14T02:52:48.600Z,14.65
2022-10-14T02:53:54.233Z,15.30
2022-10-14T02:54:56.714Z,15.13
2022-10-14T02:55:58.717Z,15.77
2022-10-14T02:57:00.908Z,15.57
2022-10-14T02:58:03.979Z,15.57
2022-10-14T02:59:06.160Z,15.23
2022-10-14T03:00:09.034Z,14.75
2022-10-14T03:01:11.456Z,15.35
2022-10-14T03:02:14.270Z,15.05
2022-10-14T03:03:17.276Z,14.50
2022-10-14T03:04:19.522Z,15.00
2022-10-14T03:05:21.550Z,14.38
2022-10-14T03:06:24.164Z,14.20
2022-10-14T03:07:26.453Z,14.52
2022-10-14T03:08:31.052Z,14.48
2022-10-14T03:09:34.972Z,14.77
2022-10-14T03:10:36.995Z,14.68
2022-10-14T03:11:39.321Z,15.32
2022-10-14T03:12:45.291Z,15.13
2022-10-14T03:13:56.019Z,14.45
2022-10-14T03:14:58.074Z,15.15
2022-10-14T03:16:01.723Z,14.60
2022-10-14T03:17:04.829Z,14.30
2022-10-14T03:18:08.918Z,14.15
2022-10-14T03:19:23.641Z,14.52
2022-10-14T03:20:28.835Z,14.55
2022-10-14T03:21:33.302Z,15.10
2022-10-14T03:22:38.437Z,15.25
2022-10-14T03:23:41.973Z,14.23
2022-10-14T03:24:45.235Z,14.30
2022-10-14T03:25:59.370Z,14.75
2022-10-14T03:27:09.615Z,14.45
2022-10-14T03:28:12.712Z,15.70
2022-10-14T03:29:26.868Z,14.75
2022-10-14T03:30:35.693Z,15.15
2022-10-14T03:31:45.189Z,15.35
2022-10-14T03:33:03.184Z,14.73
2022-10-14T03:34:27.492Z,15.60
2022-10-14T03:35:39.213Z,15.20
2022-10-14T03:36:46.513Z,14.93
2022-10-14T03:37:50.193Z,14.50
2022-10-14T03:38:55.998Z,15.50
2022-10-14T03:40:17.069Z,15.68
2022-10-14T03:41:19.327Z,14.98
2022-10-14T03:42:30.383Z,14.50
2022-10-14T03:43:32.470Z,14.57
2022-10-14T03:44:35.552Z,15.48
2022-10-14T03:46:01.518Z,14.55
2022-10-14T03:47:05.666Z,14.93
2022-10-14T03:48:09.710Z,14.40
2022-10-14T03:49:15.051Z,15.25
2022-10-14T03:50:17.087Z,15.07
2022-10-14T03:51:24.118Z,15.23
2022-10-14T03:52:28.076Z,15.52
2022-10-14T03:53:57.663Z,15.68
2022-10-14T03:55:03.967Z,14.43
2022-10-14T03:56:06.964Z,15.60
2022-10-14T03:57:11.112Z,14.88
2022-10-14T03:58:20.794Z,15.48
2022-10-14T03:59:27.554Z,15.98
2022-10-14T04:00:32.736Z,16.63
2022-10-14T04:01:53.311Z,15.90
2022-10-14T04:03:01.852Z,15.85
2022-10-14T04:04:12.850Z,15.68
2022-10-14T04:05:15.122Z,16.08
2022-10-14T04:06:19.510Z,16.27
2022-10-14T04:07:21.739Z,15.77
2022-10-14T04:08:29.397Z,16.23
2022-10-14T04:09:43.639Z,15.70
2022-10-14T04:10:51.528Z,16.38
2022-10-14T04:11:53.707Z,16.60
2022-10-14T04:13:28.033Z,16.45
2022-10-14T04:14:30.193Z,16.73
2022-10-14T04:15:35.956Z,15.82
2022-10-14T04:17:12.397Z,16.55
2022-10-14T04:18:14.550Z,16.33
2022-10-14T04:19:18.656Z,16.80
2022-10-14T04:20:21.297Z,16.50
2022-10-14T04:21:28.997Z,17.13
2022-10-14T04:22:33.486Z,16.42
2022-10-14T04:23:38.445Z,16.00
2022-10-14T04:24:51.391Z,17.45
2022-10-14T04:25:53.492Z,21.00
2022-10-14T04:26:56.475Z,17.95
2022-10-14T04:28:08.310Z,20.45
2022-10-14T04:29:28.353Z,21.60
2022-10-14T04:30:37.233Z,20.63
2022-10-14T04:31:40.787Z,19.88
2022-10-14T04:32:43.364Z,19.88
2022-10-14T04:33:46.137Z,19.33
2022-10-14T04:34:55.178Z,20.38
2022-10-14T04:36:02.164Z,19.75
2022-10-14T04:38:44.012Z,19.23
2022-10-14T04:39:47.497Z,20.23
2022-10-14T04:40:49.711Z,19.10
2022-10-14T04:41:51.985Z,19.17
2022-10-14T04:42:57.480Z,18.42
2022-10-14T04:44:08.323Z,18.83
2022-10-14T04:45:18.126Z,17.52
2022-10-14T04:46:26.623Z,17.75
2022-10-14T04:47:29.544Z,17.00
2022-10-14T04:48:36.123Z,16.55
2022-10-14T04:49:40.139Z,16.67
2022-10-14T04:50:52.665Z,16.02
2022-10-14T04:52:17.655Z,15.95
2022-10-14T04:53:46.072Z,14.02
2022-10-14T04:55:06.640Z,13.98
2022-10-14T04:56:13.061Z,13.88
2022-10-14T04:57:25.037Z,13.60
2022-10-14T04:58:27.099Z,12.57
2022-10-14T04:59:31.182Z,12.95
2022-10-14T05:01:05.592Z,13.05
2022-10-14T05:02:12.260Z,12.88
2022-10-14T05:03:20.979Z,14.00
2022-10-14T05:04:24.100Z,14.07
2022-10-14T05:05:27.089Z,14.90
2022-10-14T05:06:32.128Z,13.77
2022-10-14T05:07:36.396Z,13.55
2022-10-14T05:08:55.958Z,13.55
2022-10-14T05:09:58.314Z,13.98
2022-10-14T05:11:10.339Z,12.63
2022-10-14T05:12:20.062Z,13.70
2022-10-14T05:13:28.891Z,13.32
2022-10-14T05:14:37.241Z,14.63
2022-10-14T05:15:50.629Z,13.88
2022-10-14T05:16:57.175Z,14.40
2022-10-14T05:18:04.685Z,13.82
2022-10-14T05:19:25.146Z,13.77
2022-10-14T05:20:28.700Z,14.73
2022-10-14T05:21:33.047Z,14.77
2022-10-14T05:22:48.268Z,14.43
2022-10-14T05:23:50.527Z,13.82
2022-10-14T05:24:52.893Z,14.60
2022-10-14T05:25:55.640Z,15.00
2022-10-14T05:26:59.368Z,13.88
2022-10-14T05:28:03.870Z,14.60
2022-10-14T05:29:05.988Z,14.65
2022-10-14T05:30:08.686Z,14.90
2022-10-14T05:31:16.117Z,14.88
2022-10-14T05:32:27.197Z,14.00
2022-10-14T05:33:36.639Z,14.77
2022-10-14T05:34:39.722Z,14.30
2022-10-14T05:35:58.479Z,13.52
2022-10-14T05:37:03.892Z,13.43
2022-10-14T05:38:14.015Z,13.88
2022-10-14T05:39:18.667Z,12.57
2022-10-14T05:40:21.015Z,14.43
2022-10-14T05:41:23.620Z,13.35
2022-10-14T05:42:27.902Z,13.70
2022-10-14T05:43:33.155Z,14.75
2022-10-14T05:44:37.811Z,13.73
2022-10-14T05:45:40.072Z,13.93
2022-10-14T05:46:45.125Z,13.95
2022-10-14T05:47:50.691Z,14.60
2022-10-14T05:48:56.759Z,13.82
2022-10-14T05:49:59.641Z,14.60
2022-10-14T05:51:03.843Z,14.80
2022-10-14T05:52:09.788Z,14.82
2022-10-14T05:53:12.626Z,15.60
2022-10-14T05:54:23.035Z,16.77
2022-10-14T05:55:43.112Z,15.48
2022-10-14T05:56:51.562Z,16.92
2022-10-14T05:58:02.064Z,15.52
2022-10-14T05:59:11.231Z,16.30
2022-10-14T06:00:21.836Z,15.70
2022-10-14T06:01:35.061Z,15.25
2022-10-14T06:02:39.094Z,14.98
2022-10-14T06:03:41.814Z,15.02
2022-10-14T06:04:44.967Z,14.85
2022-10-14T06:05:48.956Z,14.98
2022-10-14T06:06:51.831Z,14.98
2022-10-14T06:07:54.076Z,14.23
2022-10-14T06:08:57.358Z,14.43
2022-10-14T06:10:00.694Z,14.40
2022-10-14T06:11:03.732Z,14.88
2022-10-14T06:12:08.395Z,13.10
2022-10-14T06:13:11.618Z,14.00
2022-10-14T06:14:15.590Z,13.32
2022-10-14T06:15:20.883Z,13.93
2022-10-14T06:16:25.498Z,13.75
2022-10-14T06:17:29.482Z,13.65
2022-10-14T06:18:32.243Z,14.15
2022-10-14T06:19:36.184Z,12.95
2022-10-14T06:20:39.215Z,12.30
2022-10-14T06:21:44.443Z,13.18
2022-10-14T06:22:46.727Z,14.77
2022-10-14T06:23:53.292Z,12.93
2022-10-14T06:24:58.337Z,12.43
2022-10-14T06:26:07.746Z,11.57
2022-10-14T06:27:10.902Z,12.07
2022-10-14T06:28:14.970Z,11.75
2022-10-14T06:29:31.736Z,11.45
2022-10-14T06:30:35.240Z,11.65
2022-10-14T06:31:40.847Z,12.02
2022-10-14T06:32:49.077Z,12.98
2022-10-14T06:33:56.405Z,12.38
2022-10-14T06:35:02.017Z,11.77
2022-10-14T06:36:07.285Z,11.68
2022-10-14T06:37:12.069Z,11.95
2022-10-14T06:38:16.049Z,11.57
2022-10-14T06:39:20.992Z,11.00
2022-10-14T06:40:24.296Z,10.05
2022-10-14T06:41:28.959Z,10.43
2022-10-14T06:42:32.484Z,9.90
2022-10-14T06:43:35.711Z,10.10
2022-10-14T06:44:39.162Z,10.55
2022-10-14T06:45:41.797Z,10.63
2022-10-14T06:46:44.296Z,11.02
2022-10-14T06:47:48.036Z,11.40
2022-10-14T06:48:50.812Z,10.27
2022-10-14T06:49:53.924Z,10.20
2022-10-14T06:51:00.076Z,9.63
2022-10-14T06:52:04.418Z,10.57
2022-10-14T06:53:06.791Z,9.43
2022-10-14T06:54:09.456Z,9.63
2022-10-14T06:55:11.727Z,9.27
2022-10-14T06:56:14.166Z,8.98
2022-10-14T06:57:17.063Z,7.30
2022-10-14T06:58:19.403Z,8.18
2022-10-14T06:59:21.537Z,7.55
2022-10-14T07:00:23.698Z,7.78
2022-10-14T07:01:26.125Z,7.25
2022-10-14T07:02:28.473Z,8.05
2022-10-14T07:03:30.887Z,7.63
2022-10-14T07:04:33.154Z,6.82
2022-10-14T07:05:36.589Z,7.10
2022-10-14T07:06:38.776Z,7.13
2022-10-14T07:07:40.973Z,6.60
2022-10-14T07:08:43.363Z,6.75
2022-10-14T07:09:45.449Z,7.10
2022-10-14T07:10:48.411Z,6.90
2022-10-14T07:11:51.305Z,6.60
2022-10-14T07:12:55.242Z,6.20
2022-10-14T07:13:58.127Z,6.07
2022-10-14T07:15:00.474Z,6.30
2022-10-14T07:16:03.585Z,6.30
2022-10-14T07:17:08.388Z,7.13
2022-10-14T07:18:10.433Z,6.20
2022-10-14T07:19:12.950Z,7.43
2022-10-14T07:20:15.274Z,6.55
2022-10-14T07:21:17.515Z,5.43
2022-10-14T07:22:20.128Z,5.68
2022-10-14T07:23:22.721Z,5.55
2022-10-14T07:24:24.770Z,6.32
2022-10-14T07:25:27.026Z,6.57
2022-10-14T07:26:32.670Z,5.95
2022-10-14T07:27:34.960Z,5.90
2022-10-14T07:28:37.517Z,5.30
2022-10-14T07:29:39.651Z,5.60
2022-10-14T07:30:41.676Z,7.25
2022-10-14T07:31:43.778Z,5.97
2022-10-14T07:32:46.169Z,5.38
2022-10-14T07:33:49.634Z,5.65
2022-10-14T07:34:52.169Z,5.95
2022-10-14T07:35:54.300Z,7.88
2022-10-14T07:36:56.364Z,4.95
2022-10-14T07:38:00.440Z,4.53
2022-10-14T07:39:05.914Z,5.45
2022-10-14T07:40:08.933Z,5.35
2022-10-14T07:41:19.462Z,5.03
2022-10-14T07:42:21.804Z,4.90
2022-10-14T07:43:24.451Z,5.30
2022-10-14T07:44:27.461Z,5.50
2022-10-14T07:45:35.348Z,5.85
2022-10-14T07:46:40.564Z,6.03
2022-10-14T07:47:44.838Z,6.35
2022-10-14T07:48:56.531Z,6.40
2022-10-14T07:50:00.336Z,6.10
2022-10-14T07:51:04.032Z,6.20
2022-10-14T07:52:06.558Z,7.15
2022-10-14T07:53:08.824Z,6.70
2022-10-14T07:54:16.992Z,6.72
2022-10-14T07:55:20.512Z,6.75
2022-10-14T07:56:23.589Z,6.43
2022-10-14T07:57:27.832Z,6.60
2022-10-14T07:58:31.904Z,6.43
2022-10-14T07:59:34.109Z,7.05
2022-10-14T08:00:37.568Z,6.40
2022-10-14T08:01:39.906Z,10.05
2022-10-14T08:02:43.299Z,7.95
2022-10-14T08:03:47.411Z,6.60
2022-10-14T08:04:56.456Z,7.43
2022-10-14T08:06:06.933Z,7.20
2022-10-14T08:07:08.876Z,7.00
2022-10-14T08:08:12.173Z,6.65
2022-10-14T08:09:14.541Z,6.78
2022-10-14T08:10:17.964Z,6.18
2022-10-14T08:11:27.173Z,6.82
2022-10-14T08:12:29.360Z,6.20
2022-10-14T08:13:32.194Z,6.30
2022-10-14T08:14:34.410Z,6.35
2022-10-14T08:15:41.573Z,5.93
2022-10-14T08:16:44.367Z,6.40
2022-10-14T08:17:46.562Z,6.10
2022-10-14T08:18:49.191Z,6.15
2022-10-14T08:19:52.898Z,8.40
2022-10-14T08:20:55.149Z,7.53
2022-10-14T08:21:57.217Z,4.53
2022-10-14T08:22:59.760Z,5.63
2022-10-14T08:24:01.832Z,6.18
2022-10-14T08:25:04.457Z,7.38
2022-10-14T08:26:21.903Z,5.82
2022-10-14T08:27:26.799Z,5.38
2022-10-14T08:28:28.996Z,5.10
2022-10-14T08:29:31.157Z,5.22
2022-10-14T08:30:41.901Z,4.93
2022-10-14T08:31:44.651Z,5.40
2022-10-14T08:32:47.253Z,5.30
2022-10-14T08:33:50.029Z,5.35
2022-10-14T08:34:52.232Z,5.45
2022-10-14T08:35:54.721Z,4.70
2022-10-14T08:36:58.102Z,5.68
2022-10-14T08:38:02.003Z,5.15
2022-10-14T08:39:05.839Z,4.75
2022-10-14T08:40:08.840Z,6.32
2022-10-14T08:41:14.118Z,6.65
2022-10-14T08:42:19.619Z,5.40
2022-10-14T08:43:32.105Z,4.55
2022-10-14T08:44:45.966Z,4.50
2022-10-14T08:45:54.717Z,4.47
2022-10-14T08:47:01.716Z,4.95
2022-10-14T08:48:18.655Z,4.70
2022-10-14T08:49:46.335Z,4.20
2022-10-14T08:50:55.020Z,4.28
2022-10-14T08:52:11.142Z,4.03
2022-10-14T08:53:21.856Z,4.43
2022-10-14T08:54:38.908Z,5.95
2022-10-14T08:55:51.135Z,4.60
2022-10-14T08:56:54.899Z,4.72
2022-10-14T08:58:03.235Z,5.57
2022-10-14T08:59:13.999Z,4.78
2022-10-14T09:01:34.794Z,4.93
2022-10-14T09:02:44.538Z,5.13
2022-10-14T09:03:46.785Z,5.28
2022-10-14T09:04:49.114Z,4.95
2022-10-14T09:05:58.222Z,5.57
2022-10-14T09:07:00.910Z,5.63
2022-10-14T09:08:03.371Z,5.18
2022-10-14T09:09:29.993Z,5.05
2022-10-14T09:10:36.924Z,5.30
2022-10-14T09:11:43.040Z,5.35
2022-10-14T09:12:45.776Z,5.35
2022-10-14T09:13:56.227Z,5.30
2022-10-14T09:15:27.677Z,5.60
2022-10-14T09:16:37.556Z,5.10
2022-10-14T09:17:50.543Z,5.18
2022-10-14T09:18:55.242Z,4.97
2022-10-14T09:20:16.747Z,4.70
2022-10-14T09:21:40.496Z,5.00
2022-10-14T09:22:57.489Z,5.53
2022-10-14T09:24:07.634Z,5.25
2022-10-14T09:25:16.986Z,5.40
2022-10-14T09:26:20.648Z,5.68
2022-10-14T09:27:24.241Z,6.13
2022-10-14T09:28:39.010Z,4.90
2022-10-14T09:30:01.785Z,6.10
2022-10-14T09:31:10.131Z,6.03
2022-10-14T09:32:21.051Z,5.53
2022-10-14T09:33:27.256Z,6.20
2022-10-14T09:34:35.033Z,5.00
2022-10-14T09:35:42.533Z,5.78
2022-10-14T09:36:47.400Z,6.35
2022-10-14T09:37:50.203Z,5.43
2022-10-14T09:38:55.877Z,5.53
2022-10-14T09:40:17.602Z,5.68
2022-10-14T09:41:31.242Z,5.57
2022-10-14T09:42:48.952Z,5.00
2022-10-14T09:44:14.512Z,5.72
2022-10-14T09:45:20.032Z,5.20
2022-10-14T09:46:27.224Z,5.10
2022-10-14T09:47:30.097Z,4.57
2022-10-14T09:48:38.632Z,5.38
2022-10-14T09:49:46.548Z,4.65
2022-10-14T09:50:52.188Z,5.05
2022-10-14T09:51:57.012Z,4.80
2022-10-14T09:53:22.678Z,5.50
2022-10-14T09:54:29.660Z,5.70
2022-10-14T09:55:33.166Z,5.03
2022-10-14T09:56:41.746Z,4.75
2022-10-14T09:57:44.877Z,5.03
2022-10-14T09:58:55.410Z,5.10
2022-10-14T10:00:01.238Z,7.38
2022-10-14T10:01:04.383Z,5.63
2022-10-14T10:02:23.511Z,4.78
2022-10-14T10:03:29.225Z,5.80
2022-10-14T10:04:48.009Z,5.07
2022-10-14T10:06:00.026Z,4.88
2022-10-14T10:07:08.318Z,4.55
2022-10-14T10:08:22.250Z,4.68
2022-10-14T10:09:24.955Z,5.20
2022-10-14T10:10:31.187Z,5.00
2022-10-14T10:11:38.188Z,4.78
2022-10-14T10:12:46.565Z,5.32
2022-10-14T10:13:48.612Z,5.22
2022-10-14T10:15:00.210Z,5.38
2022-10-14T10:16:06.159Z,5.50
2022-10-14T10:17:09.313Z,5.43
2022-10-14T10:18:29.442Z,5.30
2022-10-14T10:19:35.074Z,4.88
2022-10-14T10:20:37.854Z,6.22
2022-10-14T10:21:44.693Z,5.18
2022-10-14T10:22:48.350Z,5.13
2022-10-14T10:23:59.871Z,5.28
2022-10-14T10:25:02.155Z,4.60
2022-10-14T10:26:27.434Z,5.10
2022-10-14T10:27:36.918Z,4.70
2022-10-14T10:28:46.298Z,5.22
2022-10-14T10:31:08.037Z,4.63
2022-10-14T10:32:16.850Z,5.13
2022-10-14T10:34:54.751Z,5.45
2022-10-14T10:37:29.939Z,5.50
2022-10-14T10:38:39.622Z,5.60
2022-10-14T10:39:41.706Z,4.97
2022-10-14T10:41:28.038Z,5.05
2022-10-14T10:42:40.100Z,5.38
2022-10-14T10:43:50.867Z,5.75
2022-10-14T10:45:23.452Z,5.43
2022-10-14T10:46:40.874Z,5.10
2022-10-14T10:47:46.914Z,5.38
2022-10-14T10:49:15.352Z,5.18
2022-10-14T10:50:34.038Z,5.30
2022-10-14T10:51:39.048Z,5.35
2022-10-14T10:53:25.007Z,5.32
2022-10-14T10:54:49.006Z,5.03
2022-10-14T10:56:18.583Z,4.60
2022-10-14T10:57:36.812Z,4.18
2022-10-14T10:58:50.969Z,4.55
2022-10-14T11:00:06.422Z,4.53
2022-10-14T11:01:34.407Z,5.68
2022-10-14T11:02:48.827Z,4.37
2022-10-14T11:04:27.069Z,4.57
2022-10-14T11:05:29.119Z,4.97
2022-10-14T11:07:30.920Z,4.68
2022-10-14T11:10:25.300Z,4.82
2022-10-14T11:12:03.635Z,4.78
2022-10-14T11:13:30.741Z,3.38
2022-10-14T11:15:07.250Z,3.53
2022-10-14T11:16:24.209Z,3.88
2022-10-14T11:18:07.026Z,5.13
2022-10-14T11:19:35.166Z,3.58
2022-10-14T11:20:56.324Z,4.28
2022-10-14T11:22:28.993Z,3.90
2022-10-14T11:23:50.203Z,4.25
2022-10-14T11:25:18.629Z,3.92
2022-10-14T11:26:47.716Z,3.67
2022-10-14T11:28:09.494Z,4.03
2022-10-14T11:29:23.459Z,3.78
2022-10-14T11:30:39.510Z,3.67
2022-10-14T11:31:55.200Z,3.72
2022-10-14T11:32:58.393Z,3.85
2022-10-14T11:34:12.771Z,3.40
2022-10-14T11:35:17.264Z,3.53
2022-10-14T11:36:25.268Z,3.25
2022-10-14T11:37:34.168Z,3.58
2022-10-14T11:38:52.324Z,3.63
2022-10-14T11:40:42.805Z,4.00
2022-10-14T11:42:25.300Z,3.75
2022-10-14T11:43:57.684Z,3.75
2022-10-14T11:45:34.921Z,3.45
2022-10-14T11:46:40.830Z,3.50
2022-10-14T11:47:47.898Z,3.58
2022-10-14T11:49:00.348Z,3.95
2022-10-14T11:50:17.660Z,4.03
2022-10-14T11:51:36.081Z,5.53
2022-10-14T11:52:46.066Z,5.50
2022-10-14T11:54:03.419Z,6.63
2022-10-14T11:55:14.769Z,4.40
2022-10-14T11:56:40.343Z,4.18
2022-10-14T11:57:50.872Z,4.60
2022-10-14T11:59:15.596Z,5.20
2022-10-14T12:00:57.661Z,4.05
2022-10-14T12:02:37.602Z,4.15
2022-10-14T12:03:59.109Z,5.72
2022-10-14T12:05:14.551Z,4.82
2022-10-14T12:06:26.225Z,7.22
2022-10-14T12:07:39.714Z,4.80
2022-10-14T12:09:07.448Z,5.38
2022-10-14T12:10:20.866Z,4.95
2022-10-14T12:11:38.494Z,4.22
2022-10-14T12:12:44.264Z,5.90
2022-10-14T12:13:52.598Z,5.22
2022-10-14T12:14:55.588Z,5.35
2022-10-14T12:16:01.166Z,5.22
2022-10-14T12:17:18.391Z,5.60
2022-10-14T12:18:22.499Z,6.25
2022-10-14T12:19:30.017Z,5.25
2022-10-14T12:20:59.093Z,5.45
2022-10-14T12:22:11.060Z,4.75
2022-10-14T12:23:29.566Z,4.75
2022-10-14T12:24:42.348Z,6.97
2022-10-14T12:25:58.785Z,5.80
2022-10-14T12:27:04.935Z,5.28
2022-10-14T12:28:09.186Z,5.20
2022-10-14T12:29:18.703Z,5.32
2022-10-14T12:30:39.914Z,4.72
2022-10-14T12:31:48.379Z,5.10
2022-10-14T12:33:07.575Z,4.60
2022-10-14T12:34:15.895Z,5.10
2022-10-14T12:35:51.190Z,4.38
2022-10-14T12:36:54.860Z,3.65
2022-10-14T12:38:04.093Z,4.22
2022-10-14T12:39:19.018Z,3.75
2022-10-14T12:40:26.791Z,3.92
2022-10-14T12:41:39.905Z,3.55
2022-10-14T12:42:44.630Z,4.07
2022-10-14T12:44:01.919Z,3.90
2022-10-14T12:45:16.866Z,4.30
2022-10-14T12:46:19.181Z,6.43
2022-10-14T12:47:41.604Z,5.60
2022-10-14T12:48:51.950Z,4.55
2022-10-14T12:50:04.826Z,4.07
2022-10-14T12:51:34.763Z,4.47
2022-10-14T12:52:39.065Z,4.63
2022-10-14T12:54:05.094Z,4.50
2022-10-14T12:55:22.926Z,4.50
2022-10-14T12:56:36.812Z,4.40
2022-10-14T12:57:42.194Z,4.88
2022-10-14T12:59:02.131Z,4.07
2022-10-14T13:00:28.969Z,5.15
2022-10-14T13:01:35.475Z,6.07
2022-10-14T13:02:45.817Z,5.22
2022-10-14T13:03:54.721Z,6.15
2022-10-14T13:04:57.166Z,6.25
2022-10-14T13:06:30.677Z,5.78
2022-10-14T13:07:41.578Z,6.72
2022-10-14T13:09:14.484Z,6.50
2022-10-14T13:10:38.453Z,6.57
2022-10-14T13:12:06.523Z,7.80
2022-10-14T13:13:45.213Z,7.03
2022-10-14T13:15:04.443Z,7.50
2022-10-14T13:16:10.485Z,7.47
2022-10-14T13:17:45.790Z,8.38
2022-10-14T13:19:05.606Z,7.47
2022-10-14T13:20:36.250Z,8.10
2022-10-14T13:21:53.529Z,7.63
2022-10-14T13:23:15.643Z,10.80
2022-10-14T13:24:29.220Z,11.73
2022-10-14T13:25:40.147Z,10.25
2022-10-14T13:26:56.167Z,15.57
2022-10-14T13:28:17.043Z,10.27
2022-10-14T13:29:36.309Z,9.73
2022-10-14T13:31:01.664Z,8.57
2022-10-14T13:32:33.702Z,8.07
2022-10-14T13:33:50.823Z,8.98
2022-10-14T13:35:36.026Z,9.65
2022-10-14T13:36:57.834Z,9.45
2022-10-14T13:38:13.234Z,9.02
2022-10-14T13:39:17.110Z,9.68
2022-10-14T13:40:36.107Z,10.75
2022-10-14T13:41:41.369Z,9.30
2022-10-14T13:42:49.299Z,9.05
2022-10-14T13:43:56.981Z,10.13
2022-10-14T13:45:07.156Z,10.93
2022-10-14T13:46:22.892Z,9.93
2022-10-14T13:47:26.590Z,9.63
2022-10-14T13:48:38.541Z,9.48
2022-10-14T13:49:42.092Z,9.35
2022-10-14T13:50:51.307Z,9.30
2022-10-14T13:52:00.581Z,9.05
2022-10-14T13:53:14.299Z,8.88
2022-10-14T13:54:26.019Z,8.95
2022-10-14T13:55:29.875Z,8.88
2022-10-14T13:56:32.967Z,8.75
2022-10-14T13:58:00.028Z,9.25
2022-10-14T13:58:59.055Z,9.52
2022-10-14T14:01:34.321Z,9.75
2022-10-14T14:02:38.986Z,9.60
2022-10-14T14:03:45.437Z,11.45
2022-10-14T14:04:55.414Z,12.60
2022-10-14T14:06:00.221Z,11.07
2022-10-14T14:07:33.202Z,12.60
2022-10-14T14:08:40.507Z,11.52
2022-10-14T14:09:51.715Z,12.48
2022-10-14T14:11:18.065Z,11.50
2022-10-14T14:12:22.797Z,10.95
2022-10-14T14:13:26.786Z,11.65
2022-10-14T14:14:37.597Z,11.25
2022-10-14T14:15:40.686Z,10.70
2022-10-14T14:17:00.518Z,10.45
2022-10-14T14:18:04.528Z,11.93
2022-10-14T14:19:17.898Z,12.68
2022-10-14T14:20:33.298Z,11.85
2022-10-14T14:21:36.051Z,10.63
2022-10-14T14:22:44.384Z,11.05
2022-10-14T14:23:59.995Z,10.95
2022-10-14T14:25:55.605Z,10.32
2022-10-14T14:26:49.472Z,9.93
2022-10-14T14:27:57.361Z,10.35
2022-10-14T14:29:00.948Z,10.40
2022-10-14T14:30:08.589Z,11.18
2022-10-14T14:31:16.989Z,9.93
2022-10-14T14:32:23.705Z,10.73
2022-10-14T14:33:32.539Z,10.75
2022-10-14T14:34:38.822Z,15.57
2022-10-14T14:35:54.501Z,12.82
2022-10-14T14:37:16.587Z,9.55
2022-10-14T14:38:56.786Z,9.10
2022-10-14T14:40:15.317Z,10.23
2022-10-14T14:41:23.666Z,15.55
2022-10-14T14:42:32.114Z,21.75
2022-10-14T14:43:40.847Z,11.10
2022-10-14T14:44:50.351Z,14.25
2022-10-14T14:45:53.612Z,11.07
2022-10-14T14:47:02.405Z,13.77
2022-10-14T14:48:07.367Z,10.77
2022-10-14T14:49:17.654Z,9.77
2022-10-14T14:50:31.611Z,9.82
2022-10-14T14:51:38.262Z,10.52
2022-10-14T14:52:41.866Z,9.80
2022-10-14T14:53:52.512Z,11.02
2022-10-14T14:54:57.143Z,10.23
2022-10-14T14:56:11.871Z,9.88
2022-10-14T14:57:22.145Z,10.30
2022-10-14T14:58:30.031Z,11.38
2022-10-14T14:59:40.933Z,10.70
2022-10-14T15:00:46.368Z,11.13
2022-10-14T15:01:49.811Z,11.60
2022-10-14T15:03:00.220Z,14.73
2022-10-14T15:04:12.126Z,18.17
2022-10-14T15:05:20.569Z,14.50
2022-10-14T15:06:25.361Z,13.32
2022-10-14T15:07:28.097Z,11.68
2022-10-14T15:08:35.672Z,16.70
2022-10-14T15:09:57.445Z,12.18
2022-10-14T15:11:01.443Z,11.93
2022-10-14T15:12:12.702Z,11.75
2022-10-14T15:13:28.022Z,13.13
2022-10-14T15:14:47.750Z,11.70
2022-10-14T15:15:54.079Z,11.35
2022-10-14T15:16:57.540Z,11.02
2022-10-14T15:18:21.020Z,10.85
2022-10-14T15:20:14.117Z,11.57
2022-10-14T15:21:19.637Z,10.80
2022-10-14T15:22:29.815Z,11.07
2022-10-14T15:23:54.223Z,11.30
2022-10-14T15:25:01.442Z,11.45